sensor_id;sensor_type;location;lat;lon;timestamp;P1;durP1;ratioP1;P2;durP2;ratioP2
69712;SDS011;56980;51.826;4.424;2022-10-16T00:01:45;4.43;;;1.17;;
69712;SDS011;56980;51.826;4.424;2022-10-16T00:04:11;11.85;;;1.98;;
69712;SDS011;56980;51.826;4.424;2022-10-16T00:06:37;4.43;;;0.93;;
69712;SDS011;56980;51.826;4.424;2022-10-16T00:09:02;3.03;;;1.02;;
69712;SDS011;56980;51.826;4.424;2022-10-16T00:11:29;1.80;;;1.00;;
69712;SDS011;56980;51.826;4.424;2022-10-16T00:13:59;1.27;;;0.90;;
69712;SDS011;56980;51.826;4.424;2022-10-16T00:16:25;2.50;;;1.05;;
69712;SDS011;56980;51.826;4.424;2022-10-16T00:18:52;3.13;;;1.30;;
69712;SDS011;56980;51.826;4.424;2022-10-16T00:21:22;2.80;;;1.30;;
69712;SDS011;56980;51.826;4.424;2022-10-16T00:23:50;1.70;;;1.03;;
69712;SDS011;56980;51.826;4.424;2022-10-16T00:26:17;4.00;;;1.10;;
69712;SDS011;56980;51.826;4.424;2022-10-16T00:28:44;4.57;;;1.10;;
69712;SDS011;56980;51.826;4.424;2022-10-16T00:31:15;4.78;;;1.20;;
69712;SDS011;56980;51.826;4.424;2022-10-16T00:33:42;4.13;;;1.27;;
69712;SDS011;56980;51.826;4.424;2022-10-16T00:36:09;1.60;;;0.90;;
69712;SDS011;56980;51.826;4.424;2022-10-16T00:38:36;3.10;;;1.17;;
69712;SDS011;56980;51.826;4.424;2022-10-16T00:41:06;3.75;;;1.20;;
69712;SDS011;56980;51.826;4.424;2022-10-16T00:46:01;3.40;;;1.20;;
69712;SDS011;56980;51.826;4.424;2022-10-16T00:48:28;3.17;;;1.40;;
69712;SDS011;56980;51.826;4.424;2022-10-16T00:50:57;2.17;;;1.17;;
69712;SDS011;56980;51.826;4.424;2022-10-16T00:53:23;2.65;;;1.55;;
69712;SDS011;56980;51.826;4.424;2022-10-16T00:55:50;5.18;;;1.20;;
69712;SDS011;56980;51.826;4.424;2022-10-16T00:58:16;4.47;;;1.20;;
69712;SDS011;56980;51.826;4.424;2022-10-16T01:00:41;4.35;;;1.60;;
69712;SDS011;56980;51.826;4.424;2022-10-16T01:03:23;2.97;;;1.17;;
69712;SDS011;56980;51.826;4.424;2022-10-16T01:05:59;4.38;;;1.60;;
69712;SDS011;56980;51.826;4.424;2022-10-16T01:11:29;2.95;;;1.45;;
69712;SDS011;56980;51.826;4.424;2022-10-16T01:14:19;3.47;;;1.50;;
69712;SDS011;56980;51.826;4.424;2022-10-16T01:16:53;1.83;;;1.17;;
69712;SDS011;56980;51.826;4.424;2022-10-16T01:19:26;2.15;;;1.35;;
69712;SDS011;56980;51.826;4.424;2022-10-16T01:22:16;3.72;;;1.60;;
69712;SDS011;56980;51.826;4.424;2022-10-16T01:24:45;2.53;;;1.35;;
69712;SDS011;56980;51.826;4.424;2022-10-16T01:27:15;2.40;;;1.60;;
69712;SDS011;56980;51.826;4.424;2022-10-16T01:29:54;4.53;;;1.45;;
69712;SDS011;56980;51.826;4.424;2022-10-16T01:35:18;3.33;;;1.50;;
69712;SDS011;56980;51.826;4.424;2022-10-16T01:37:50;2.00;;;1.20;;
69712;SDS011;56980;51.826;4.424;2022-10-16T01:40:20;3.97;;;1.30;;
69712;SDS011;56980;51.826;4.424;2022-10-16T01:43:05;2.58;;;1.42;;
69712;SDS011;56980;51.826;4.424;2022-10-16T01:45:35;2.40;;;1.58;;
69712;SDS011;56980;51.826;4.424;2022-10-16T01:48:02;2.30;;;1.50;;
69712;SDS011;56980;51.826;4.424;2022-10-16T01:50:33;2.75;;;1.27;;
69712;SDS011;56980;51.826;4.424;2022-10-16T01:53:02;3.08;;;2.00;;
69712;SDS011;56980;51.826;4.424;2022-10-16T01:55:30;2.60;;;1.25;;
69712;SDS011;56980;51.826;4.424;2022-10-16T01:57:59;2.78;;;1.30;;
69712;SDS011;56980;51.826;4.424;2022-10-16T02:00:27;5.22;;;1.30;;
69712;SDS011;56980;51.826;4.424;2022-10-16T02:02:54;1.88;;;1.10;;
69712;SDS011;56980;51.826;4.424;2022-10-16T02:07:57;3.65;;;1.27;;
69712;SDS011;56980;51.826;4.424;2022-10-16T02:10:23;3.60;;;2.33;;
69712;SDS011;56980;51.826;4.424;2022-10-16T02:12:53;2.88;;;1.40;;
69712;SDS011;56980;51.826;4.424;2022-10-16T02:15:22;4.82;;;1.10;;
69712;SDS011;56980;51.826;4.424;2022-10-16T02:17:48;2.30;;;1.20;;
69712;SDS011;56980;51.826;4.424;2022-10-16T02:20:13;1.97;;;1.10;;
69712;SDS011;56980;51.826;4.424;2022-10-16T02:22:40;7.35;;;1.63;;
69712;SDS011;56980;51.826;4.424;2022-10-16T02:25:12;2.72;;;1.48;;
69712;SDS011;56980;51.826;4.424;2022-10-16T02:27:46;3.00;;;1.10;;
69712;SDS011;56980;51.826;4.424;2022-10-16T02:30:25;2.10;;;1.10;;
69712;SDS011;56980;51.826;4.424;2022-10-16T02:32:55;1.77;;;1.15;;
69712;SDS011;56980;51.826;4.424;2022-10-16T02:35:23;2.10;;;1.30;;
69712;SDS011;56980;51.826;4.424;2022-10-16T02:37:50;2.95;;;1.20;;
69712;SDS011;56980;51.826;4.424;2022-10-16T02:40:17;2.17;;;1.20;;
69712;SDS011;56980;51.826;4.424;2022-10-16T02:42:43;5.35;;;1.10;;
69712;SDS011;56980;51.826;4.424;2022-10-16T02:45:10;1.95;;;1.20;;
69712;SDS011;56980;51.826;4.424;2022-10-16T02:47:36;3.95;;;1.40;;
69712;SDS011;56980;51.826;4.424;2022-10-16T02:50:02;3.55;;;1.50;;
69712;SDS011;56980;51.826;4.424;2022-10-16T02:52:28;2.22;;;1.20;;
69712;SDS011;56980;51.826;4.424;2022-10-16T02:54:53;2.60;;;1.30;;
69712;SDS011;56980;51.826;4.424;2022-10-16T02:57:19;1.97;;;1.20;;
69712;SDS011;56980;51.826;4.424;2022-10-16T02:59:44;5.05;;;1.30;;
69712;SDS011;56980;51.826;4.424;2022-10-16T03:02:10;3.97;;;1.30;;
69712;SDS011;56980;51.826;4.424;2022-10-16T03:04:36;3.00;;;1.08;;
69712;SDS011;56980;51.826;4.424;2022-10-16T03:07:02;3.43;;;1.23;;
69712;SDS011;56980;51.826;4.424;2022-10-16T03:09:28;3.45;;;1.20;;
69712;SDS011;56980;51.826;4.424;2022-10-16T03:11:53;5.80;;;1.30;;
69712;SDS011;56980;51.826;4.424;2022-10-16T03:14:18;3.10;;;1.20;;
69712;SDS011;56980;51.826;4.424;2022-10-16T03:16:44;3.20;;;1.23;;
69712;SDS011;56980;51.826;4.424;2022-10-16T03:19:09;4.20;;;1.20;;
69712;SDS011;56980;51.826;4.424;2022-10-16T03:21:34;3.25;;;1.02;;
69712;SDS011;56980;51.826;4.424;2022-10-16T03:24:00;2.63;;;1.10;;
69712;SDS011;56980;51.826;4.424;2022-10-16T03:26:25;2.97;;;1.20;;
69712;SDS011;56980;51.826;4.424;2022-10-16T03:28:50;4.00;;;1.20;;
69712;SDS011;56980;51.826;4.424;2022-10-16T03:31:16;2.83;;;1.10;;
69712;SDS011;56980;51.826;4.424;2022-10-16T03:33:41;2.90;;;1.10;;
69712;SDS011;56980;51.826;4.424;2022-10-16T03:36:06;5.60;;;1.10;;
69712;SDS011;56980;51.826;4.424;2022-10-16T03:38:32;2.63;;;1.10;;
69712;SDS011;56980;51.826;4.424;2022-10-16T03:40:57;2.13;;;0.90;;
69712;SDS011;56980;51.826;4.424;2022-10-16T03:43:23;3.77;;;1.27;;
69712;SDS011;56980;51.826;4.424;2022-10-16T03:45:49;2.77;;;1.33;;
69712;SDS011;56980;51.826;4.424;2022-10-16T03:48:15;3.22;;;1.35;;
69712;SDS011;56980;51.826;4.424;2022-10-16T03:50:41;3.77;;;1.20;;
69712;SDS011;56980;51.826;4.424;2022-10-16T03:53:07;2.70;;;1.50;;
69712;SDS011;56980;51.826;4.424;2022-10-16T03:55:32;1.90;;;1.10;;
69712;SDS011;56980;51.826;4.424;2022-10-16T03:57:57;4.53;;;1.40;;
69712;SDS011;56980;51.826;4.424;2022-10-16T04:00:23;10.33;;;2.80;;
69712;SDS011;56980;51.826;4.424;2022-10-16T04:02:48;2.03;;;1.30;;
69712;SDS011;56980;51.826;4.424;2022-10-16T04:05:14;2.53;;;1.43;;
69712;SDS011;56980;51.826;4.424;2022-10-16T04:07:39;2.92;;;1.20;;
69712;SDS011;56980;51.826;4.424;2022-10-16T04:10:05;4.97;;;1.20;;
69712;SDS011;56980;51.826;4.424;2022-10-16T04:12:30;4.15;;;1.63;;
69712;SDS011;56980;51.826;4.424;2022-10-16T04:14:56;4.88;;;2.17;;
69712;SDS011;56980;51.826;4.424;2022-10-16T04:17:23;5.83;;;1.80;;
69712;SDS011;56980;51.826;4.424;2022-10-16T04:19:49;4.65;;;1.10;;
69712;SDS011;56980;51.826;4.424;2022-10-16T04:22:14;3.00;;;1.37;;
69712;SDS011;56980;51.826;4.424;2022-10-16T04:24:40;1.93;;;0.93;;
69712;SDS011;56980;51.826;4.424;2022-10-16T04:27:05;5.03;;;2.07;;
69712;SDS011;56980;51.826;4.424;2022-10-16T04:29:31;3.58;;;1.45;;
69712;SDS011;56980;51.826;4.424;2022-10-16T04:31:56;4.30;;;1.50;;
69712;SDS011;56980;51.826;4.424;2022-10-16T04:34:21;3.93;;;1.17;;
69712;SDS011;56980;51.826;4.424;2022-10-16T04:36:47;5.20;;;1.40;;
69712;SDS011;56980;51.826;4.424;2022-10-16T04:39:14;3.63;;;1.33;;
69712;SDS011;56980;51.826;4.424;2022-10-16T04:41:39;6.70;;;1.47;;
69712;SDS011;56980;51.826;4.424;2022-10-16T04:44:05;3.53;;;1.20;;
69712;SDS011;56980;51.826;4.424;2022-10-16T04:46:30;2.80;;;1.27;;
69712;SDS011;56980;51.826;4.424;2022-10-16T04:48:55;2.50;;;1.37;;
69712;SDS011;56980;51.826;4.424;2022-10-16T04:51:21;3.20;;;1.60;;
69712;SDS011;56980;51.826;4.424;2022-10-16T04:53:46;2.50;;;1.70;;
69712;SDS011;56980;51.826;4.424;2022-10-16T04:56:12;3.77;;;1.90;;
69712;SDS011;56980;51.826;4.424;2022-10-16T04:58:37;4.07;;;1.58;;
69712;SDS011;56980;51.826;4.424;2022-10-16T05:01:02;4.23;;;1.50;;
69712;SDS011;56980;51.826;4.424;2022-10-16T05:03:28;4.10;;;1.50;;
69712;SDS011;56980;51.826;4.424;2022-10-16T05:05:53;4.43;;;1.53;;
69712;SDS011;56980;51.826;4.424;2022-10-16T05:08:19;3.33;;;1.40;;
69712;SDS011;56980;51.826;4.424;2022-10-16T05:10:44;4.15;;;1.60;;
69712;SDS011;56980;51.826;4.424;2022-10-16T05:16:03;2.22;;;1.30;;
69712;SDS011;56980;51.826;4.424;2022-10-16T05:18:29;7.83;;;1.40;;
69712;SDS011;56980;51.826;4.424;2022-10-16T05:20:54;3.43;;;1.53;;
69712;SDS011;56980;51.826;4.424;2022-10-16T05:23:20;3.08;;;1.63;;
69712;SDS011;56980;51.826;4.424;2022-10-16T05:25:51;6.13;;;2.10;;
69712;SDS011;56980;51.826;4.424;2022-10-16T05:28:24;5.13;;;1.73;;
69712;SDS011;56980;51.826;4.424;2022-10-16T05:30:50;2.83;;;1.50;;
69712;SDS011;56980;51.826;4.424;2022-10-16T05:33:16;3.73;;;1.20;;
69712;SDS011;56980;51.826;4.424;2022-10-16T05:35:41;4.90;;;1.65;;
69712;SDS011;56980;51.826;4.424;2022-10-16T05:38:07;2.37;;;1.60;;
69712;SDS011;56980;51.826;4.424;2022-10-16T05:40:32;2.85;;;1.23;;
69712;SDS011;56980;51.826;4.424;2022-10-16T05:42:58;3.92;;;1.55;;
69712;SDS011;56980;51.826;4.424;2022-10-16T05:45:23;4.50;;;1.43;;
69712;SDS011;56980;51.826;4.424;2022-10-16T05:47:49;2.67;;;1.30;;
69712;SDS011;56980;51.826;4.424;2022-10-16T05:50:14;2.80;;;1.40;;
69712;SDS011;56980;51.826;4.424;2022-10-16T05:52:39;6.23;;;2.00;;
69712;SDS011;56980;51.826;4.424;2022-10-16T05:55:05;3.33;;;1.38;;
69712;SDS011;56980;51.826;4.424;2022-10-16T05:57:30;3.85;;;1.33;;
69712;SDS011;56980;51.826;4.424;2022-10-16T05:59:56;6.03;;;1.60;;
69712;SDS011;56980;51.826;4.424;2022-10-16T06:02:21;7.32;;;1.52;;
69712;SDS011;56980;51.826;4.424;2022-10-16T06:04:47;3.23;;;1.30;;
69712;SDS011;56980;51.826;4.424;2022-10-16T06:07:12;5.50;;;1.13;;
69712;SDS011;56980;51.826;4.424;2022-10-16T06:09:37;5.00;;;1.23;;
69712;SDS011;56980;51.826;4.424;2022-10-16T06:12:03;4.63;;;1.10;;
69712;SDS011;56980;51.826;4.424;2022-10-16T06:14:28;5.47;;;1.90;;
69712;SDS011;56980;51.826;4.424;2022-10-16T06:16:54;4.70;;;1.23;;
69712;SDS011;56980;51.826;4.424;2022-10-16T06:19:19;4.50;;;1.20;;
69712;SDS011;56980;51.826;4.424;2022-10-16T06:21:44;5.33;;;1.33;;
69712;SDS011;56980;51.826;4.424;2022-10-16T06:24:10;2.43;;;1.27;;
69712;SDS011;56980;51.826;4.424;2022-10-16T06:26:36;5.78;;;1.42;;
69712;SDS011;56980;51.826;4.424;2022-10-16T06:29:02;7.00;;;1.70;;
69712;SDS011;56980;51.826;4.424;2022-10-16T06:31:28;2.15;;;1.27;;
69712;SDS011;56980;51.826;4.424;2022-10-16T06:33:56;4.60;;;1.50;;
69712;SDS011;56980;51.826;4.424;2022-10-16T06:36:23;2.97;;;1.23;;
69712;SDS011;56980;51.826;4.424;2022-10-16T06:38:49;6.07;;;1.15;;
69712;SDS011;56980;51.826;4.424;2022-10-16T06:41:18;4.10;;;1.50;;
69712;SDS011;56980;51.826;4.424;2022-10-16T06:43:45;6.30;;;1.20;;
69712;SDS011;56980;51.826;4.424;2022-10-16T06:46:12;5.22;;;1.30;;
69712;SDS011;56980;51.826;4.424;2022-10-16T06:48:39;6.03;;;1.40;;
69712;SDS011;56980;51.826;4.424;2022-10-16T06:53:39;5.38;;;1.50;;
69712;SDS011;56980;51.826;4.424;2022-10-16T06:56:10;7.80;;;1.60;;
69712;SDS011;56980;51.826;4.424;2022-10-16T06:58:38;5.40;;;1.42;;
69712;SDS011;56980;51.826;4.424;2022-10-16T07:01:04;4.50;;;1.53;;
69712;SDS011;56980;51.826;4.424;2022-10-16T07:03:30;5.13;;;2.88;;
69712;SDS011;56980;51.826;4.424;2022-10-16T07:05:56;3.25;;;1.30;;
69712;SDS011;56980;51.826;4.424;2022-10-16T07:08:22;2.57;;;1.37;;
69712;SDS011;56980;51.826;4.424;2022-10-16T07:10:48;4.20;;;1.20;;
69712;SDS011;56980;51.826;4.424;2022-10-16T07:13:13;5.23;;;1.37;;
69712;SDS011;56980;51.826;4.424;2022-10-16T07:15:39;4.28;;;1.35;;
69712;SDS011;56980;51.826;4.424;2022-10-16T07:18:06;5.43;;;1.17;;
69712;SDS011;56980;51.826;4.424;2022-10-16T07:20:32;7.85;;;1.50;;
69712;SDS011;56980;51.826;4.424;2022-10-16T07:22:57;5.68;;;1.83;;
69712;SDS011;56980;51.826;4.424;2022-10-16T07:25:22;2.90;;;1.03;;
69712;SDS011;56980;51.826;4.424;2022-10-16T07:27:48;4.03;;;1.33;;
69712;SDS011;56980;51.826;4.424;2022-10-16T07:30:13;4.73;;;1.30;;
69712;SDS011;56980;51.826;4.424;2022-10-16T07:32:39;7.17;;;1.73;;
69712;SDS011;56980;51.826;4.424;2022-10-16T07:35:04;7.15;;;2.45;;
69712;SDS011;56980;51.826;4.424;2022-10-16T07:37:30;8.82;;;3.13;;
69712;SDS011;56980;51.826;4.424;2022-10-16T07:39:56;4.20;;;1.20;;
69712;SDS011;56980;51.826;4.424;2022-10-16T07:42:21;3.72;;;1.48;;
69712;SDS011;56980;51.826;4.424;2022-10-16T07:44:46;4.30;;;1.37;;
69712;SDS011;56980;51.826;4.424;2022-10-16T07:47:12;3.43;;;1.30;;
69712;SDS011;56980;51.826;4.424;2022-10-16T07:49:37;5.57;;;1.43;;
69712;SDS011;56980;51.826;4.424;2022-10-16T07:52:03;6.30;;;1.30;;
69712;SDS011;56980;51.826;4.424;2022-10-16T07:54:28;6.90;;;1.27;;
69712;SDS011;56980;51.826;4.424;2022-10-16T07:56:53;8.37;;;1.53;;
69712;SDS011;56980;51.826;4.424;2022-10-16T07:59:19;4.10;;;1.50;;
69712;SDS011;56980;51.826;4.424;2022-10-16T08:01:44;8.27;;;1.33;;
69712;SDS011;56980;51.826;4.424;2022-10-16T08:04:10;7.05;;;1.50;;
69712;SDS011;56980;51.826;4.424;2022-10-16T08:06:36;5.90;;;1.23;;
69712;SDS011;56980;51.826;4.424;2022-10-16T08:09:03;7.72;;;2.45;;
69712;SDS011;56980;51.826;4.424;2022-10-16T08:11:28;5.67;;;1.60;;
69712;SDS011;56980;51.826;4.424;2022-10-16T08:13:54;7.15;;;1.60;;
69712;SDS011;56980;51.826;4.424;2022-10-16T08:16:19;10.45;;;1.30;;
69712;SDS011;56980;51.826;4.424;2022-10-16T08:18:45;8.37;;;1.40;;
69712;SDS011;56980;51.826;4.424;2022-10-16T08:21:15;7.50;;;1.40;;
69712;SDS011;56980;51.826;4.424;2022-10-16T08:23:42;6.95;;;1.20;;
69712;SDS011;56980;51.826;4.424;2022-10-16T08:26:09;3.67;;;1.52;;
69712;SDS011;56980;51.826;4.424;2022-10-16T08:28:35;2.75;;;1.40;;
69712;SDS011;56980;51.826;4.424;2022-10-16T08:31:06;7.57;;;1.48;;
69712;SDS011;56980;51.826;4.424;2022-10-16T08:33:38;16.25;;;2.10;;
69712;SDS011;56980;51.826;4.424;2022-10-16T08:36:05;8.97;;;1.73;;
69712;SDS011;56980;51.826;4.424;2022-10-16T08:38:31;5.28;;;1.40;;
69712;SDS011;56980;51.826;4.424;2022-10-16T08:41:01;6.32;;;1.60;;
69712;SDS011;56980;51.826;4.424;2022-10-16T08:43:40;10.55;;;2.30;;
69712;SDS011;56980;51.826;4.424;2022-10-16T08:46:21;7.07;;;1.60;;
69712;SDS011;56980;51.826;4.424;2022-10-16T08:49:05;9.80;;;1.30;;
69712;SDS011;56980;51.826;4.424;2022-10-16T08:51:38;2.78;;;1.33;;
69712;SDS011;56980;51.826;4.424;2022-10-16T08:54:05;5.00;;;1.48;;
69712;SDS011;56980;51.826;4.424;2022-10-16T08:56:40;2.75;;;1.35;;
69712;SDS011;56980;51.826;4.424;2022-10-16T08:59:06;7.60;;;1.70;;
69712;SDS011;56980;51.826;4.424;2022-10-16T09:01:37;10.75;;;1.70;;
69712;SDS011;56980;51.826;4.424;2022-10-16T09:06:57;8.43;;;1.50;;
69712;SDS011;56980;51.826;4.424;2022-10-16T09:15:03;5.28;;;1.40;;
69712;SDS011;56980;51.826;4.424;2022-10-16T09:17:38;7.07;;;1.85;;
69712;SDS011;56980;51.826;4.424;2022-10-16T09:20:24;6.45;;;1.38;;
69712;SDS011;56980;51.826;4.424;2022-10-16T09:25:29;7.93;;;1.50;;
69712;SDS011;56980;51.826;4.424;2022-10-16T09:27:56;9.15;;;1.63;;
69712;SDS011;56980;51.826;4.424;2022-10-16T09:30:21;6.87;;;1.43;;
69712;SDS011;56980;51.826;4.424;2022-10-16T09:32:48;6.35;;;1.30;;
69712;SDS011;56980;51.826;4.424;2022-10-16T09:35:18;9.25;;;1.67;;
69712;SDS011;56980;51.826;4.424;2022-10-16T09:37:47;8.90;;;1.95;;
69712;SDS011;56980;51.826;4.424;2022-10-16T09:40:30;10.15;;;1.98;;
69712;SDS011;56980;51.826;4.424;2022-10-16T09:46:09;5.20;;;1.40;;
69712;SDS011;56980;51.826;4.424;2022-10-16T09:48:51;8.20;;;1.60;;
69712;SDS011;56980;51.826;4.424;2022-10-16T09:51:44;10.20;;;1.30;;
69712;SDS011;56980;51.826;4.424;2022-10-16T09:56:35;11.63;;;1.70;;
69712;SDS011;56980;51.826;4.424;2022-10-16T09:59:08;6.38;;;1.77;;
69712;SDS011;56980;51.826;4.424;2022-10-16T10:02:00;15.25;;;3.08;;
69712;SDS011;56980;51.826;4.424;2022-10-16T10:04:36;13.13;;;2.13;;
69712;SDS011;56980;51.826;4.424;2022-10-16T10:07:05;9.32;;;1.58;;
69712;SDS011;56980;51.826;4.424;2022-10-16T10:09:37;9.37;;;2.43;;
69712;SDS011;56980;51.826;4.424;2022-10-16T10:12:05;11.20;;;2.25;;
69712;SDS011;56980;51.826;4.424;2022-10-16T10:14:49;8.98;;;2.47;;
69712;SDS011;56980;51.826;4.424;2022-10-16T10:17:20;10.18;;;1.38;;
69712;SDS011;56980;51.826;4.424;2022-10-16T10:19:51;9.15;;;1.48;;
69712;SDS011;56980;51.826;4.424;2022-10-16T10:22:32;10.43;;;1.77;;
69712;SDS011;56980;51.826;4.424;2022-10-16T10:33:41;10.88;;;1.73;;
69712;SDS011;56980;51.826;4.424;2022-10-16T10:36:32;8.17;;;1.50;;
69712;SDS011;56980;51.826;4.424;2022-10-16T10:49:54;13.63;;;1.93;;
69712;SDS011;56980;51.826;4.424;2022-10-16T10:52:34;8.05;;;1.83;;
69712;SDS011;56980;51.826;4.424;2022-10-16T11:00:58;13.43;;;1.53;;
69712;SDS011;56980;51.826;4.424;2022-10-16T11:06:17;7.43;;;1.13;;
69712;SDS011;56980;51.826;4.424;2022-10-16T11:11:29;9.88;;;1.35;;
69712;SDS011;56980;51.826;4.424;2022-10-16T11:14:04;8.05;;;1.10;;
69712;SDS011;56980;51.826;4.424;2022-10-16T11:16:43;13.13;;;1.67;;
69712;SDS011;56980;51.826;4.424;2022-10-16T11:22:24;5.40;;;1.08;;
69712;SDS011;56980;51.826;4.424;2022-10-16T11:27:54;9.02;;;1.60;;
69712;SDS011;56980;51.826;4.424;2022-10-16T11:30:25;7.88;;;1.08;;
69712;SDS011;56980;51.826;4.424;2022-10-16T11:35:42;14.65;;;1.50;;
69712;SDS011;56980;51.826;4.424;2022-10-16T11:38:15;10.48;;;1.73;;
69712;SDS011;56980;51.826;4.424;2022-10-16T11:40:51;13.68;;;1.75;;
69712;SDS011;56980;51.826;4.424;2022-10-16T11:45:59;14.10;;;2.05;;
69712;SDS011;56980;51.826;4.424;2022-10-16T11:48:31;12.60;;;1.60;;
69712;SDS011;56980;51.826;4.424;2022-10-16T11:51:17;7.65;;;1.42;;
69712;SDS011;56980;51.826;4.424;2022-10-16T11:53:55;6.72;;;1.30;;
69712;SDS011;56980;51.826;4.424;2022-10-16T11:56:25;8.90;;;1.90;;
69712;SDS011;56980;51.826;4.424;2022-10-16T11:58:59;10.38;;;1.55;;
69712;SDS011;56980;51.826;4.424;2022-10-16T12:01:33;9.07;;;1.67;;
69712;SDS011;56980;51.826;4.424;2022-10-16T12:04:18;8.65;;;1.85;;
69712;SDS011;56980;51.826;4.424;2022-10-16T12:06:57;11.60;;;1.30;;
69712;SDS011;56980;51.826;4.424;2022-10-16T12:09:30;10.73;;;1.40;;
69712;SDS011;56980;51.826;4.424;2022-10-16T12:11:57;8.48;;;1.63;;
69712;SDS011;56980;51.826;4.424;2022-10-16T12:16:56;6.13;;;1.33;;
69712;SDS011;56980;51.826;4.424;2022-10-16T12:19:25;8.60;;;1.40;;
69712;SDS011;56980;51.826;4.424;2022-10-16T12:21:54;11.43;;;1.73;;
69712;SDS011;56980;51.826;4.424;2022-10-16T12:26:59;9.90;;;1.27;;
69712;SDS011;56980;51.826;4.424;2022-10-16T12:32:04;9.00;;;1.98;;
69712;SDS011;56980;51.826;4.424;2022-10-16T12:34:45;8.98;;;1.52;;
69712;SDS011;56980;51.826;4.424;2022-10-16T12:37:46;12.07;;;1.30;;
69712;SDS011;56980;51.826;4.424;2022-10-16T12:40:24;9.85;;;1.30;;
69712;SDS011;56980;51.826;4.424;2022-10-16T12:42:56;13.50;;;1.55;;
69712;SDS011;56980;51.826;4.424;2022-10-16T12:45:34;4.90;;;1.10;;
69712;SDS011;56980;51.826;4.424;2022-10-16T12:48:00;9.20;;;1.27;;
69712;SDS011;56980;51.826;4.424;2022-10-16T12:53:00;10.48;;;1.20;;
69712;SDS011;56980;51.826;4.424;2022-10-16T12:55:27;11.57;;;1.48;;
69712;SDS011;56980;51.826;4.424;2022-10-16T13:00:43;14.63;;;1.48;;
69712;SDS011;56980;51.826;4.424;2022-10-16T13:03:21;9.20;;;1.60;;
69712;SDS011;56980;51.826;4.424;2022-10-16T13:14:35;10.65;;;1.60;;
69712;SDS011;56980;51.826;4.424;2022-10-16T13:20:41;15.60;;;1.73;;
69712;SDS011;56980;51.826;4.424;2022-10-16T13:28:11;11.73;;;2.25;;
69712;SDS011;56980;51.826;4.424;2022-10-16T13:30:44;9.25;;;1.25;;
69712;SDS011;56980;51.826;4.424;2022-10-16T13:33:18;9.02;;;1.40;;
69712;SDS011;56980;51.826;4.424;2022-10-16T13:35:54;10.02;;;1.58;;
69712;SDS011;56980;51.826;4.424;2022-10-16T13:40:51;10.57;;;1.67;;
69712;SDS011;56980;51.826;4.424;2022-10-16T13:43:18;11.38;;;1.10;;
69712;SDS011;56980;51.826;4.424;2022-10-16T13:45:56;8.57;;;1.70;;
69712;SDS011;56980;51.826;4.424;2022-10-16T13:48:27;12.25;;;1.55;;
69712;SDS011;56980;51.826;4.424;2022-10-16T13:51:26;9.30;;;1.30;;
69712;SDS011;56980;51.826;4.424;2022-10-16T13:53:45;9.45;;;1.90;;
69712;SDS011;56980;51.826;4.424;2022-10-16T13:56:12;11.88;;;1.50;;
69712;SDS011;56980;51.826;4.424;2022-10-16T13:58:43;12.00;;;1.40;;
69712;SDS011;56980;51.826;4.424;2022-10-16T14:03:52;7.82;;;1.40;;
69712;SDS011;56980;51.826;4.424;2022-10-16T14:06:19;8.43;;;1.53;;
69712;SDS011;56980;51.826;4.424;2022-10-16T14:08:50;10.63;;;1.92;;
69712;SDS011;56980;51.826;4.424;2022-10-16T14:11:25;8.23;;;1.50;;
69712;SDS011;56980;51.826;4.424;2022-10-16T14:13:51;12.83;;;1.67;;
69712;SDS011;56980;51.826;4.424;2022-10-16T14:16:21;12.40;;;1.30;;
69712;SDS011;56980;51.826;4.424;2022-10-16T14:18:53;14.85;;;1.52;;
69712;SDS011;56980;51.826;4.424;2022-10-16T14:21:22;7.20;;;1.35;;
69712;SDS011;56980;51.826;4.424;2022-10-16T14:23:48;11.40;;;1.67;;
69712;SDS011;56980;51.826;4.424;2022-10-16T14:26:15;8.73;;;1.60;;
69712;SDS011;56980;51.826;4.424;2022-10-16T14:28:45;6.10;;;1.20;;
69712;SDS011;56980;51.826;4.424;2022-10-16T14:34:02;10.68;;;1.67;;
69712;SDS011;56980;51.826;4.424;2022-10-16T14:36:28;11.27;;;1.90;;
69712;SDS011;56980;51.826;4.424;2022-10-16T14:38:59;8.63;;;1.77;;
69712;SDS011;56980;51.826;4.424;2022-10-16T14:41:27;6.45;;;1.10;;
69712;SDS011;56980;51.826;4.424;2022-10-16T14:43:54;13.27;;;1.70;;
69712;SDS011;56980;51.826;4.424;2022-10-16T14:46:23;13.93;;;2.53;;
69712;SDS011;56980;51.826;4.424;2022-10-16T14:48:58;9.50;;;1.83;;
69712;SDS011;56980;51.826;4.424;2022-10-16T14:51:27;8.00;;;1.30;;
69712;SDS011;56980;51.826;4.424;2022-10-16T14:53:53;10.65;;;1.70;;
69712;SDS011;56980;51.826;4.424;2022-10-16T14:58:49;9.70;;;1.45;;
69712;SDS011;56980;51.826;4.424;2022-10-16T15:01:16;8.07;;;1.00;;
69712;SDS011;56980;51.826;4.424;2022-10-16T15:03:42;11.93;;;1.80;;
69712;SDS011;56980;51.826;4.424;2022-10-16T15:06:11;9.75;;;1.60;;
69712;SDS011;56980;51.826;4.424;2022-10-16T15:08:38;7.97;;;1.77;;
69712;SDS011;56980;51.826;4.424;2022-10-16T15:11:03;9.27;;;1.42;;
69712;SDS011;56980;51.826;4.424;2022-10-16T15:13:29;6.18;;;1.48;;
69712;SDS011;56980;51.826;4.424;2022-10-16T15:15:55;21.87;;;2.80;;
69712;SDS011;56980;51.826;4.424;2022-10-16T15:18:20;14.47;;;1.87;;
69712;SDS011;56980;51.826;4.424;2022-10-16T15:20:49;9.80;;;1.70;;
69712;SDS011;56980;51.826;4.424;2022-10-16T15:23:16;8.65;;;2.42;;
69712;SDS011;56980;51.826;4.424;2022-10-16T15:25:48;15.45;;;4.03;;
69712;SDS011;56980;51.826;4.424;2022-10-16T15:28:19;11.45;;;3.60;;
69712;SDS011;56980;51.826;4.424;2022-10-16T15:30:45;12.00;;;4.13;;
69712;SDS011;56980;51.826;4.424;2022-10-16T15:33:16;19.23;;;5.13;;
69712;SDS011;56980;51.826;4.424;2022-10-16T15:35:44;13.43;;;3.88;;
69712;SDS011;56980;51.826;4.424;2022-10-16T15:38:12;15.27;;;4.15;;
69712;SDS011;56980;51.826;4.424;2022-10-16T15:40:40;10.73;;;2.65;;
69712;SDS011;56980;51.826;4.424;2022-10-16T15:43:06;9.70;;;3.17;;
69712;SDS011;56980;51.826;4.424;2022-10-16T15:45:32;7.30;;;2.08;;
69712;SDS011;56980;51.826;4.424;2022-10-16T15:47:57;13.63;;;1.47;;
69712;SDS011;56980;51.826;4.424;2022-10-16T15:50:22;8.27;;;1.63;;
69712;SDS011;56980;51.826;4.424;2022-10-16T15:52:49;11.05;;;2.03;;
69712;SDS011;56980;51.826;4.424;2022-10-16T15:55:15;9.98;;;2.00;;
69712;SDS011;56980;51.826;4.424;2022-10-16T15:57:40;8.18;;;1.65;;
69712;SDS011;56980;51.826;4.424;2022-10-16T16:00:08;12.23;;;2.25;;
69712;SDS011;56980;51.826;4.424;2022-10-16T16:02:35;3.58;;;1.30;;
69712;SDS011;56980;51.826;4.424;2022-10-16T16:05:01;10.35;;;1.70;;
69712;SDS011;56980;51.826;4.424;2022-10-16T16:07:26;8.47;;;1.83;;
69712;SDS011;56980;51.826;4.424;2022-10-16T16:09:52;9.33;;;1.63;;
69712;SDS011;56980;51.826;4.424;2022-10-16T16:12:18;7.13;;;1.73;;
69712;SDS011;56980;51.826;4.424;2022-10-16T16:14:43;5.83;;;1.53;;
69712;SDS011;56980;51.826;4.424;2022-10-16T16:17:11;8.13;;;1.77;;
69712;SDS011;56980;51.826;4.424;2022-10-16T16:19:36;9.88;;;1.67;;
69712;SDS011;56980;51.826;4.424;2022-10-16T16:22:02;11.00;;;1.93;;
69712;SDS011;56980;51.826;4.424;2022-10-16T16:24:27;8.43;;;1.70;;
69712;SDS011;56980;51.826;4.424;2022-10-16T16:26:53;16.58;;;1.92;;
69712;SDS011;56980;51.826;4.424;2022-10-16T16:29:19;7.57;;;2.10;;
69712;SDS011;56980;51.826;4.424;2022-10-16T16:31:44;11.47;;;1.63;;
69712;SDS011;56980;51.826;4.424;2022-10-16T16:34:11;10.88;;;2.10;;
69712;SDS011;56980;51.826;4.424;2022-10-16T16:36:37;8.77;;;1.95;;
69712;SDS011;56980;51.826;4.424;2022-10-16T16:39:04;11.32;;;2.22;;
69712;SDS011;56980;51.826;4.424;2022-10-16T16:41:30;5.97;;;1.70;;
69712;SDS011;56980;51.826;4.424;2022-10-16T16:44:02;9.63;;;2.00;;
69712;SDS011;56980;51.826;4.424;2022-10-16T16:46:31;8.77;;;1.57;;
69712;SDS011;56980;51.826;4.424;2022-10-16T16:48:58;7.43;;;2.28;;
69712;SDS011;56980;51.826;4.424;2022-10-16T16:51:24;8.05;;;2.83;;